Carlos City, Indiana
Current Conditions -  °F | °C
As of 10:35 AM on Saturday 22 Nov 2014 (Local Time) from KVES Reporting Station
Overcast Overcast  
Wind Chill: 32°   Ceiling: 5000
Heat Index: 39°   Visibility: 10mi
Dew Point: 36°   Wind: 12mph
Humidity: 87%   Direction: 200°SSW
Pressure: 30.18"   Gusts: 18mph
Location:  40.0606°N, 84.9258°W
Report Text: KVES 221535Z AUTO 20010G16KT 10SM OVC050 04/02 A3018 RMK AO2
Loading
Personal Weather Stations






























Interactive Weather Map New forecast layout! Learn more

10-Day Weather Forecast

Advertisements
Track Severe Weather on mobile